createdAt,value
2023-01-11T00:03:24.428Z,8.98
2023-01-11T00:08:27.691Z,8.97
2023-01-11T00:13:30.086Z,8.75
2023-01-11T00:18:31.597Z,8.71
2023-01-11T00:23:34.701Z,8.75
2023-01-11T00:28:36.276Z,8.79
2023-01-11T00:33:37.788Z,8.99
2023-01-11T00:38:39.376Z,9.20
2023-01-11T00:43:40.919Z,9.27
2023-01-11T00:48:42.427Z,9.39
2023-01-11T00:53:43.961Z,9.53
2023-01-11T00:58:45.473Z,9.66
2023-01-11T01:03:46.976Z,9.84
2023-01-11T01:08:48.775Z,9.96
2023-01-11T01:13:50.268Z,10.03
2023-01-11T01:18:51.770Z,10.00
2023-01-11T01:23:54.657Z,9.90
2023-01-11T01:28:56.141Z,9.92
2023-01-11T01:33:58.189Z,9.92
2023-01-11T01:39:00.179Z,9.96
2023-01-11T01:44:05.229Z,9.99
2023-01-11T01:49:14.792Z,10.04
2023-01-11T01:54:23.376Z,10.12
2023-01-11T01:59:29.542Z,10.17
2023-01-11T02:04:43.938Z,10.12
2023-01-11T02:09:55.499Z,9.97
2023-01-11T02:15:00.516Z,10.13
2023-01-11T02:20:20.896Z,10.25
2023-01-11T02:25:41.144Z,10.26
2023-01-11T02:31:15.099Z,10.17
2023-01-11T02:36:38.447Z,10.19
2023-01-11T02:41:39.919Z,10.17
2023-01-11T02:46:53.076Z,10.19
2023-01-11T02:52:00.620Z,10.17
2023-01-11T02:57:04.236Z,10.27
2023-01-11T03:02:05.848Z,10.29
2023-01-11T03:07:25.673Z,10.27
2023-01-11T03:12:27.135Z,10.37
2023-01-11T03:17:35.344Z,10.19
2023-01-11T03:23:12.458Z,10.23
2023-01-11T03:28:35.306Z,10.02
2023-01-11T03:33:52.758Z,10.14
2023-01-11T03:38:56.783Z,10.30
2023-01-11T03:44:01.329Z,10.39
2023-01-11T03:49:14.658Z,10.61
2023-01-11T03:54:21.813Z,10.73
2023-01-11T03:59:23.637Z,10.89
2023-01-11T04:04:25.266Z,11.13
2023-01-11T04:09:26.825Z,11.06
2023-01-11T04:14:28.440Z,11.23
2023-01-11T04:19:30.060Z,10.93
2023-01-11T04:24:31.709Z,10.81
2023-01-11T04:29:33.263Z,10.71
2023-01-11T04:34:34.744Z,10.82
2023-01-11T04:39:36.347Z,10.79
2023-01-11T04:44:37.939Z,10.73
2023-01-11T04:49:39.502Z,10.82
2023-01-11T04:54:41.757Z,10.66
2023-01-11T04:59:43.332Z,10.67
2023-01-11T05:04:44.862Z,10.65
2023-01-11T05:09:46.370Z,10.88
2023-01-11T05:14:47.936Z,10.96
2023-01-11T05:19:49.484Z,10.95
2023-01-11T05:24:51.059Z,10.88
2023-01-11T05:29:52.526Z,10.88
2023-01-11T05:34:54.027Z,11.09
2023-01-11T05:39:55.567Z,11.10
2023-01-11T05:44:58.252Z,11.11
2023-01-11T05:49:59.849Z,11.14
2023-01-11T05:55:01.332Z,11.07
2023-01-11T06:00:03.919Z,11.09
2023-01-11T06:05:08.627Z,11.23
2023-01-11T06:10:10.834Z,11.27
2023-01-11T06:15:12.354Z,11.27
2023-01-11T06:20:13.917Z,11.22
2023-01-11T06:25:15.404Z,11.25
2023-01-11T06:30:17.361Z,11.25
2023-01-11T06:35:18.908Z,11.30
2023-01-11T06:40:20.501Z,11.24
2023-01-11T06:45:22.046Z,11.33
2023-01-11T06:50:24.046Z,11.30
2023-01-11T06:55:27.894Z,11.30
2023-01-11T07:00:29.430Z,11.33
2023-01-11T07:05:35.684Z,11.32
2023-01-11T07:10:37.687Z,11.38
2023-01-11T07:15:39.363Z,11.64
2023-01-11T07:20:41.372Z,11.75
2023-01-11T07:25:42.900Z,11.91
2023-01-11T07:30:57.639Z,11.86
2023-01-11T07:36:00.587Z,11.90
2023-01-11T07:41:02.101Z,11.90
2023-01-11T07:46:03.712Z,11.87
2023-01-11T07:51:05.363Z,11.82
2023-01-11T07:56:07.047Z,11.84
2023-01-11T08:01:08.582Z,11.77
2023-01-11T08:06:10.219Z,11.87
2023-01-11T08:11:12.038Z,11.80
2023-01-11T08:16:13.618Z,11.81
2023-01-11T08:21:15.214Z,11.83
2023-01-11T08:26:16.769Z,11.88
2023-01-11T08:31:18.464Z,11.86
2023-01-11T08:36:20.046Z,11.99
2023-01-11T08:41:22.124Z,12.11
2023-01-11T08:46:23.805Z,12.04
2023-01-11T08:51:25.371Z,11.87
2023-01-11T08:56:26.927Z,11.85
2023-01-11T09:01:28.815Z,11.84
2023-01-11T09:06:30.444Z,11.95
2023-01-11T09:11:32.100Z,12.04
2023-01-11T09:16:33.638Z,11.97
2023-01-11T09:21:35.126Z,12.01
2023-01-11T09:26:36.669Z,12.01
2023-01-11T09:31:38.591Z,11.89
2023-01-11T09:36:40.627Z,11.92
2023-01-11T09:42:06.123Z,12.05
2023-01-11T09:47:22.991Z,12.11
2023-01-11T09:52:24.486Z,12.14
2023-01-11T09:57:49.015Z,12.21
2023-01-11T10:03:18.175Z,12.16
2023-01-11T10:18:29.557Z,12.18
2023-01-11T10:19:46.545Z,12.14
2023-01-11T10:24:52.960Z,12.11
2023-01-11T10:29:58.988Z,12.01
2023-01-11T10:35:16.113Z,12.11
2023-01-11T10:40:27.975Z,11.99
2023-01-11T10:45:43.890Z,11.96
2023-01-11T10:51:22.802Z,12.21
2023-01-11T10:57:02.419Z,12.11
2023-01-11T11:02:27.455Z,12.22
2023-01-11T11:08:01.720Z,12.20
2023-01-11T11:13:22.021Z,12.08
2023-01-11T11:18:24.103Z,12.04
2023-01-11T11:23:27.072Z,11.88
2023-01-11T11:28:30.986Z,11.94
2023-01-11T11:33:40.895Z,11.93
2023-01-11T11:39:19.028Z,12.00
2023-01-11T11:44:23.840Z,12.04
2023-01-11T11:49:26.072Z,11.98
2023-01-11T11:54:32.101Z,11.89
2023-01-11T11:59:33.646Z,11.83
2023-01-11T12:04:37.873Z,11.63
2023-01-11T12:09:43.207Z,11.61
2023-01-11T12:15:24.638Z,11.70
2023-01-11T12:20:28.212Z,11.65
2023-01-11T12:25:29.850Z,11.64
2023-01-11T12:31:30.448Z,11.78
2023-01-11T12:36:53.062Z,11.75
2023-01-11T12:42:18.643Z,11.73
2023-01-11T12:47:29.584Z,11.76
2023-01-11T12:53:11.130Z,11.66
2023-01-11T12:58:23.995Z,11.60
2023-01-11T13:03:34.686Z,11.59
2023-01-11T13:08:56.677Z,11.45
2023-01-11T13:14:06.147Z,11.44
2023-01-11T13:19:21.307Z,11.66
2023-01-11T13:24:28.245Z,11.72
2023-01-11T13:29:34.731Z,11.87
2023-01-11T13:34:42.045Z,12.57
2023-01-11T13:39:51.880Z,12.86
2023-01-11T13:44:59.824Z,12.97
2023-01-11T13:50:05.331Z,13.26
2023-01-11T13:55:25.999Z,12.89
2023-01-11T14:00:41.004Z,12.97
2023-01-11T14:06:32.375Z,13.15
2023-01-11T14:12:01.034Z,13.37
2023-01-11T14:17:08.410Z,13.68
2023-01-11T14:22:14.520Z,13.63
2023-01-11T14:27:56.566Z,13.45
2023-01-11T14:33:06.946Z,13.04
2023-01-11T14:38:27.201Z,13.06
2023-01-11T14:43:46.412Z,12.83
2023-01-11T14:49:23.487Z,12.64
2023-01-11T14:54:39.395Z,12.40
2023-01-11T14:59:41.067Z,12.37
2023-01-11T15:04:51.748Z,12.31
2023-01-11T15:09:53.653Z,12.16
2023-01-11T15:15:14.729Z,12.11
2023-01-11T15:20:19.069Z,11.89
2023-01-11T15:25:24.766Z,11.70
2023-01-11T15:30:29.220Z,11.55
2023-01-11T15:35:33.724Z,11.57
2023-01-11T15:40:40.507Z,11.28
2023-01-11T15:45:51.388Z,10.95
2023-01-11T15:51:16.864Z,10.60
2023-01-11T15:56:51.948Z,10.59
2023-01-11T16:02:14.690Z,10.35
2023-01-11T16:07:42.895Z,10.31
2023-01-11T16:13:04.621Z,10.23
2023-01-11T16:18:15.052Z,10.18
2023-01-11T16:23:20.668Z,10.07
2023-01-11T16:28:22.618Z,10.15
2023-01-11T16:33:26.844Z,10.19
2023-01-11T16:38:28.753Z,10.17
2023-01-11T16:43:32.770Z,10.01
2023-01-11T16:48:34.381Z,10.17
2023-01-11T16:53:39.298Z,10.24
2023-01-11T16:58:41.639Z,10.43
2023-01-11T17:03:51.533Z,10.52
2023-01-11T17:08:55.622Z,10.54
2023-01-11T17:14:12.327Z,10.32
2023-01-11T17:19:21.718Z,10.10
2023-01-11T17:24:24.627Z,9.82
2023-01-11T17:29:33.421Z,9.65
2023-01-11T17:34:37.168Z,9.57
2023-01-11T17:39:47.770Z,9.66
2023-01-11T17:44:51.079Z,9.53
2023-01-11T17:49:55.492Z,9.55
2023-01-11T17:55:02.289Z,9.33
2023-01-11T18:00:22.494Z,9.37
2023-01-11T18:05:27.507Z,9.27
2023-01-11T18:10:31.495Z,9.04
2023-01-11T18:15:36.741Z,8.85
2023-01-11T18:20:39.829Z,8.95
2023-01-11T18:25:41.615Z,9.31
2023-01-11T18:30:50.831Z,9.46
2023-01-11T18:35:58.474Z,9.45
2023-01-11T18:41:05.378Z,9.43
2023-01-11T18:46:09.266Z,9.50
2023-01-11T18:51:17.626Z,9.59
2023-01-11T18:56:19.385Z,9.55
2023-01-11T19:01:21.022Z,9.50
2023-01-11T19:06:22.778Z,9.31
2023-01-11T19:11:24.530Z,9.15
2023-01-11T19:16:26.256Z,9.03
2023-01-11T19:21:27.970Z,9.05
2023-01-11T19:26:29.531Z,9.01
2023-01-11T19:31:31.341Z,9.19
2023-01-11T19:36:32.878Z,9.29
2023-01-11T19:41:35.122Z,9.12
2023-01-11T19:46:36.767Z,8.93
2023-01-11T19:51:38.604Z,8.51
2023-01-11T19:56:44.110Z,8.34
2023-01-11T20:01:47.231Z,8.26
2023-01-11T20:06:48.904Z,8.37
2023-01-11T20:11:50.459Z,8.37
2023-01-11T20:16:52.138Z,8.57
2023-01-11T20:21:53.793Z,8.61
2023-01-11T20:26:56.730Z,8.84
2023-01-11T20:32:15.380Z,8.72
2023-01-11T20:37:20.004Z,8.89
2023-01-11T20:42:21.605Z,8.82
2023-01-11T20:47:23.135Z,8.80
2023-01-11T20:52:24.650Z,9.15
2023-01-11T20:57:26.297Z,9.20
2023-01-11T21:02:27.946Z,9.26
2023-01-11T21:07:29.804Z,9.25
2023-01-11T21:12:31.412Z,9.10
2023-01-11T21:17:33.194Z,9.59
2023-01-11T21:22:35.012Z,9.92
2023-01-11T21:27:36.516Z,10.09
2023-01-11T21:32:38.094Z,10.17
2023-01-11T21:37:39.638Z,10.41
2023-01-11T21:42:42.038Z,10.45
2023-01-11T21:47:44.029Z,10.39
2023-01-11T21:52:45.622Z,10.47
2023-01-11T21:57:47.132Z,10.56
2023-01-11T22:02:49.871Z,10.56
2023-01-11T22:07:51.411Z,10.62
2023-01-11T22:12:53.180Z,10.51
2023-01-11T22:17:54.725Z,10.39
2023-01-11T22:22:56.227Z,10.55
2023-01-11T22:27:57.722Z,10.55
2023-01-11T22:32:59.806Z,10.66
2023-01-11T22:38:01.307Z,10.75
2023-01-11T22:43:02.851Z,10.77
2023-01-11T22:48:04.517Z,10.82
2023-01-11T22:53:05.989Z,10.83
2023-01-11T22:58:07.472Z,10.87
2023-01-11T23:03:09.122Z,10.81
2023-01-11T23:08:10.708Z,10.87
2023-01-11T23:13:12.275Z,10.97
2023-01-11T23:18:13.740Z,10.97
2023-01-11T23:23:15.232Z,11.00
2023-01-11T23:28:16.708Z,11.01
2023-01-11T23:33:18.227Z,10.92
2023-01-11T23:38:19.726Z,10.91
2023-01-11T23:43:21.212Z,10.91
2023-01-11T23:48:26.355Z,10.98
2023-01-11T23:53:27.895Z,11.03
2023-01-11T23:58:30.816Z,11.14
